sensor_id;sensor_type;location;lat;lon;timestamp;temperature;humidity
20416;DHT22;10367;52.202;5.996;2023-12-20T00:00:44;5.80;99.90
20416;DHT22;10367;52.202;5.996;2023-12-20T00:03:12;5.80;99.90
20416;DHT22;10367;52.202;5.996;2023-12-20T00:05:42;5.70;99.90
20416;DHT22;10367;52.202;5.996;2023-12-20T00:08:11;5.70;99.90
20416;DHT22;10367;52.202;5.996;2023-12-20T00:10:40;5.70;99.90
20416;DHT22;10367;52.202;5.996;2023-12-20T00:13:09;5.70;99.90
20416;DHT22;10367;52.202;5.996;2023-12-20T00:15:37;5.70;99.90
20416;DHT22;10367;52.202;5.996;2023-12-20T00:18:06;5.80;99.90
20416;DHT22;10367;52.202;5.996;2023-12-20T00:20:35;5.80;99.90
20416;DHT22;10367;52.202;5.996;2023-12-20T00:23:05;5.90;99.90
20416;DHT22;10367;52.202;5.996;2023-12-20T00:25:35;5.90;99.90
20416;DHT22;10367;52.202;5.996;2023-12-20T00:28:04;5.90;99.90
20416;DHT22;10367;52.202;5.996;2023-12-20T00:30:32;5.90;99.90
20416;DHT22;10367;52.202;5.996;2023-12-20T00:33:01;5.80;99.90
20416;DHT22;10367;52.202;5.996;2023-12-20T00:35:30;5.70;99.90
20416;DHT22;10367;52.202;5.996;2023-12-20T00:37:59;5.60;99.90
20416;DHT22;10367;52.202;5.996;2023-12-20T00:40:32;5.60;99.90
20416;DHT22;10367;52.202;5.996;2023-12-20T00:43:01;5.50;99.90
20416;DHT22;10367;52.202;5.996;2023-12-20T00:45:29;5.50;99.90
20416;DHT22;10367;52.202;5.996;2023-12-20T00:47:58;5.50;99.90
20416;DHT22;10367;52.202;5.996;2023-12-20T00:50:30;5.40;99.90
20416;DHT22;10367;52.202;5.996;2023-12-20T00:52:59;5.40;99.90
20416;DHT22;10367;52.202;5.996;2023-12-20T00:55:32;5.30;99.90
20416;DHT22;10367;52.202;5.996;2023-12-20T00:58:01;5.30;99.90
20416;DHT22;10367;52.202;5.996;2023-12-20T01:00:29;5.20;99.90
20416;DHT22;10367;52.202;5.996;2023-12-20T01:02:58;5.20;99.90
20416;DHT22;10367;52.202;5.996;2023-12-20T01:05:27;5.10;99.90
20416;DHT22;10367;52.202;5.996;2023-12-20T01:07:56;5.10;99.90
20416;DHT22;10367;52.202;5.996;2023-12-20T01:10:32;5.10;99.90
20416;DHT22;10367;52.202;5.996;2023-12-20T01:13:00;5.10;99.90
20416;DHT22;10367;52.202;5.996;2023-12-20T01:15:29;5.00;99.90
20416;DHT22;10367;52.202;5.996;2023-12-20T01:18:01;5.10;99.90
20416;DHT22;10367;52.202;5.996;2023-12-20T01:20:30;5.00;99.90
20416;DHT22;10367;52.202;5.996;2023-12-20T01:22:58;5.10;99.90
20416;DHT22;10367;52.202;5.996;2023-12-20T01:25:31;5.10;99.90
20416;DHT22;10367;52.202;5.996;2023-12-20T01:28:00;5.10;99.90
20416;DHT22;10367;52.202;5.996;2023-12-20T01:30:30;5.10;99.90
20416;DHT22;10367;52.202;5.996;2023-12-20T01:33:00;5.10;99.90
20416;DHT22;10367;52.202;5.996;2023-12-20T01:35:29;5.00;99.90
20416;DHT22;10367;52.202;5.996;2023-12-20T01:38:00;5.00;99.90
20416;DHT22;10367;52.202;5.996;2023-12-20T01:40:29;4.90;99.90
20416;DHT22;10367;52.202;5.996;2023-12-20T01:43:07;5.00;99.90
20416;DHT22;10367;52.202;5.996;2023-12-20T01:45:36;5.00;99.90
20416;DHT22;10367;52.202;5.996;2023-12-20T01:48:05;5.00;99.90
20416;DHT22;10367;52.202;5.996;2023-12-20T01:50:36;4.90;99.90
20416;DHT22;10367;52.202;5.996;2023-12-20T01:53:08;4.90;99.90
20416;DHT22;10367;52.202;5.996;2023-12-20T01:55:39;5.00;99.90
20416;DHT22;10367;52.202;5.996;2023-12-20T01:58:11;5.00;99.90
20416;DHT22;10367;52.202;5.996;2023-12-20T02:00:41;4.90;99.90
20416;DHT22;10367;52.202;5.996;2023-12-20T02:03:09;4.90;99.90
20416;DHT22;10367;52.202;5.996;2023-12-20T02:05:39;4.90;99.90
20416;DHT22;10367;52.202;5.996;2023-12-20T02:08:08;5.00;99.90
20416;DHT22;10367;52.202;5.996;2023-12-20T02:10:37;5.00;99.90
20416;DHT22;10367;52.202;5.996;2023-12-20T02:13:07;5.10;99.90
20416;DHT22;10367;52.202;5.996;2023-12-20T02:15:37;5.00;99.90
20416;DHT22;10367;52.202;5.996;2023-12-20T02:18:07;5.00;99.90
20416;DHT22;10367;52.202;5.996;2023-12-20T02:20:36;5.10;99.90
20416;DHT22;10367;52.202;5.996;2023-12-20T02:23:06;5.20;99.90
20416;DHT22;10367;52.202;5.996;2023-12-20T02:25:34;5.20;99.90
20416;DHT22;10367;52.202;5.996;2023-12-20T02:28:04;5.30;99.90
20416;DHT22;10367;52.202;5.996;2023-12-20T02:30:34;5.30;99.90
20416;DHT22;10367;52.202;5.996;2023-12-20T02:33:04;5.30;99.90
20416;DHT22;10367;52.202;5.996;2023-12-20T02:35:36;5.30;99.90
20416;DHT22;10367;52.202;5.996;2023-12-20T02:38:06;5.20;99.90
20416;DHT22;10367;52.202;5.996;2023-12-20T02:40:35;5.30;99.90
20416;DHT22;10367;52.202;5.996;2023-12-20T02:43:03;5.40;99.90
20416;DHT22;10367;52.202;5.996;2023-12-20T02:45:32;5.40;99.90
20416;DHT22;10367;52.202;5.996;2023-12-20T02:48:02;5.50;99.90
20416;DHT22;10367;52.202;5.996;2023-12-20T02:50:30;5.50;99.90
20416;DHT22;10367;52.202;5.996;2023-12-20T02:52:59;5.50;99.90
20416;DHT22;10367;52.202;5.996;2023-12-20T02:55:29;5.50;99.90
20416;DHT22;10367;52.202;5.996;2023-12-20T02:57:58;5.50;99.90
20416;DHT22;10367;52.202;5.996;2023-12-20T03:00:27;5.50;99.90
20416;DHT22;10367;52.202;5.996;2023-12-20T03:02:56;5.50;99.90
20416;DHT22;10367;52.202;5.996;2023-12-20T03:05:27;5.50;99.90
20416;DHT22;10367;52.202;5.996;2023-12-20T03:07:55;5.40;99.90
20416;DHT22;10367;52.202;5.996;2023-12-20T03:10:24;5.40;99.90
20416;DHT22;10367;52.202;5.996;2023-12-20T03:12:55;5.40;99.90
20416;DHT22;10367;52.202;5.996;2023-12-20T03:15:24;5.40;99.90
20416;DHT22;10367;52.202;5.996;2023-12-20T03:17:52;5.40;99.90
20416;DHT22;10367;52.202;5.996;2023-12-20T03:20:21;5.50;99.90
20416;DHT22;10367;52.202;5.996;2023-12-20T03:22:50;5.50;99.90
20416;DHT22;10367;52.202;5.996;2023-12-20T03:25:18;5.50;99.90
20416;DHT22;10367;52.202;5.996;2023-12-20T03:27:47;5.50;99.90
20416;DHT22;10367;52.202;5.996;2023-12-20T03:30:19;5.60;99.90
20416;DHT22;10367;52.202;5.996;2023-12-20T03:32:51;5.60;99.90
20416;DHT22;10367;52.202;5.996;2023-12-20T03:35:20;5.70;99.90
20416;DHT22;10367;52.202;5.996;2023-12-20T03:37:49;5.80;99.90
20416;DHT22;10367;52.202;5.996;2023-12-20T03:40:17;5.80;99.90
20416;DHT22;10367;52.202;5.996;2023-12-20T03:42:46;5.90;99.90
20416;DHT22;10367;52.202;5.996;2023-12-20T03:45:15;5.90;99.90
20416;DHT22;10367;52.202;5.996;2023-12-20T03:47:45;5.90;99.90
20416;DHT22;10367;52.202;5.996;2023-12-20T03:50:16;5.90;99.90
20416;DHT22;10367;52.202;5.996;2023-12-20T03:52:44;5.80;99.90
20416;DHT22;10367;52.202;5.996;2023-12-20T03:55:15;5.80;99.90
20416;DHT22;10367;52.202;5.996;2023-12-20T03:57:44;5.70;99.90
20416;DHT22;10367;52.202;5.996;2023-12-20T04:00:16;5.70;99.90
20416;DHT22;10367;52.202;5.996;2023-12-20T04:02:46;5.80;99.90
20416;DHT22;10367;52.202;5.996;2023-12-20T04:05:15;5.90;99.90
20416;DHT22;10367;52.202;5.996;2023-12-20T04:07:43;5.90;99.90
20416;DHT22;10367;52.202;5.996;2023-12-20T04:10:12;6.00;99.90
20416;DHT22;10367;52.202;5.996;2023-12-20T04:12:41;5.90;99.90
20416;DHT22;10367;52.202;5.996;2023-12-20T04:15:10;5.90;99.90
20416;DHT22;10367;52.202;5.996;2023-12-20T04:17:39;5.80;99.90
20416;DHT22;10367;52.202;5.996;2023-12-20T04:20:10;5.70;99.90
20416;DHT22;10367;52.202;5.996;2023-12-20T04:22:39;5.70;99.90
20416;DHT22;10367;52.202;5.996;2023-12-20T04:25:08;5.70;99.90
20416;DHT22;10367;52.202;5.996;2023-12-20T04:27:37;5.80;99.90
20416;DHT22;10367;52.202;5.996;2023-12-20T04:30:07;5.80;99.90
20416;DHT22;10367;52.202;5.996;2023-12-20T04:32:36;5.90;99.90
20416;DHT22;10367;52.202;5.996;2023-12-20T04:35:05;5.90;99.90
20416;DHT22;10367;52.202;5.996;2023-12-20T04:37:36;5.90;99.90
20416;DHT22;10367;52.202;5.996;2023-12-20T04:40:05;5.90;99.90
20416;DHT22;10367;52.202;5.996;2023-12-20T04:42:35;6.00;99.90
20416;DHT22;10367;52.202;5.996;2023-12-20T04:45:05;6.00;99.90
20416;DHT22;10367;52.202;5.996;2023-12-20T04:47:33;6.00;99.90
20416;DHT22;10367;52.202;5.996;2023-12-20T04:50:03;6.10;99.90
20416;DHT22;10367;52.202;5.996;2023-12-20T04:52:32;6.10;99.90
20416;DHT22;10367;52.202;5.996;2023-12-20T04:55:03;6.10;99.90
20416;DHT22;10367;52.202;5.996;2023-12-20T04:57:31;6.10;99.90
20416;DHT22;10367;52.202;5.996;2023-12-20T05:00:00;6.10;99.90
20416;DHT22;10367;52.202;5.996;2023-12-20T05:02:30;6.00;99.90
20416;DHT22;10367;52.202;5.996;2023-12-20T05:04:58;5.90;99.90
20416;DHT22;10367;52.202;5.996;2023-12-20T05:07:28;5.90;99.90
20416;DHT22;10367;52.202;5.996;2023-12-20T05:09:56;5.80;99.90
20416;DHT22;10367;52.202;5.996;2023-12-20T05:12:26;5.90;99.90
20416;DHT22;10367;52.202;5.996;2023-12-20T05:14:55;5.90;99.90
20416;DHT22;10367;52.202;5.996;2023-12-20T05:17:24;6.00;99.90
20416;DHT22;10367;52.202;5.996;2023-12-20T05:19:52;6.00;99.90
20416;DHT22;10367;52.202;5.996;2023-12-20T05:22:21;6.10;99.90
20416;DHT22;10367;52.202;5.996;2023-12-20T05:24:53;6.10;99.90
20416;DHT22;10367;52.202;5.996;2023-12-20T05:27:22;6.10;99.90
20416;DHT22;10367;52.202;5.996;2023-12-20T05:29:52;6.20;99.90
20416;DHT22;10367;52.202;5.996;2023-12-20T05:32:29;6.30;99.90
20416;DHT22;10367;52.202;5.996;2023-12-20T05:34:58;6.30;99.90
20416;DHT22;10367;52.202;5.996;2023-12-20T05:37:27;6.40;99.90
20416;DHT22;10367;52.202;5.996;2023-12-20T05:39:56;6.40;99.90
20416;DHT22;10367;52.202;5.996;2023-12-20T05:42:25;6.50;99.90
20416;DHT22;10367;52.202;5.996;2023-12-20T05:45:00;6.50;99.90
20416;DHT22;10367;52.202;5.996;2023-12-20T05:47:29;6.50;99.90
20416;DHT22;10367;52.202;5.996;2023-12-20T05:50:00;6.50;99.90
20416;DHT22;10367;52.202;5.996;2023-12-20T05:52:29;6.60;99.90
20416;DHT22;10367;52.202;5.996;2023-12-20T05:55:00;6.70;99.90
20416;DHT22;10367;52.202;5.996;2023-12-20T05:57:29;6.70;99.90
20416;DHT22;10367;52.202;5.996;2023-12-20T05:59:59;6.70;99.90
20416;DHT22;10367;52.202;5.996;2023-12-20T06:02:28;6.70;99.90
20416;DHT22;10367;52.202;5.996;2023-12-20T06:05:00;6.80;99.90
20416;DHT22;10367;52.202;5.996;2023-12-20T06:07:29;6.80;99.90
20416;DHT22;10367;52.202;5.996;2023-12-20T06:09:58;6.80;99.90
20416;DHT22;10367;52.202;5.996;2023-12-20T06:12:26;6.70;99.90
20416;DHT22;10367;52.202;5.996;2023-12-20T06:14:56;6.70;99.90
20416;DHT22;10367;52.202;5.996;2023-12-20T06:17:26;6.80;99.90
20416;DHT22;10367;52.202;5.996;2023-12-20T06:19:58;6.80;99.90
20416;DHT22;10367;52.202;5.996;2023-12-20T06:22:30;6.80;99.90
20416;DHT22;10367;52.202;5.996;2023-12-20T06:24:59;6.80;99.90
20416;DHT22;10367;52.202;5.996;2023-12-20T06:27:28;6.80;99.90
20416;DHT22;10367;52.202;5.996;2023-12-20T06:29:57;6.80;99.90
20416;DHT22;10367;52.202;5.996;2023-12-20T06:32:30;6.80;99.90
20416;DHT22;10367;52.202;5.996;2023-12-20T06:34:59;6.90;99.90
20416;DHT22;10367;52.202;5.996;2023-12-20T06:37:28;6.90;99.90
20416;DHT22;10367;52.202;5.996;2023-12-20T06:39:59;6.90;99.90
20416;DHT22;10367;52.202;5.996;2023-12-20T06:42:31;7.00;99.90
20416;DHT22;10367;52.202;5.996;2023-12-20T06:45:10;7.00;99.90
20416;DHT22;10367;52.202;5.996;2023-12-20T06:47:41;6.90;99.90
20416;DHT22;10367;52.202;5.996;2023-12-20T06:50:12;6.90;99.90
20416;DHT22;10367;52.202;5.996;2023-12-20T06:52:40;6.90;99.90
20416;DHT22;10367;52.202;5.996;2023-12-20T06:55:09;6.90;99.90
20416;DHT22;10367;52.202;5.996;2023-12-20T06:57:38;6.90;99.90
20416;DHT22;10367;52.202;5.996;2023-12-20T07:00:08;7.00;99.90
20416;DHT22;10367;52.202;5.996;2023-12-20T07:02:37;7.00;99.90
20416;DHT22;10367;52.202;5.996;2023-12-20T07:05:07;7.00;99.90
20416;DHT22;10367;52.202;5.996;2023-12-20T07:07:36;7.00;99.90
20416;DHT22;10367;52.202;5.996;2023-12-20T07:10:06;7.00;99.90
20416;DHT22;10367;52.202;5.996;2023-12-20T07:12:35;7.00;99.90
20416;DHT22;10367;52.202;5.996;2023-12-20T07:15:04;7.10;99.90
20416;DHT22;10367;52.202;5.996;2023-12-20T07:17:34;7.10;99.90
20416;DHT22;10367;52.202;5.996;2023-12-20T07:20:04;7.10;99.90
20416;DHT22;10367;52.202;5.996;2023-12-20T07:22:35;7.10;99.90
20416;DHT22;10367;52.202;5.996;2023-12-20T07:25:05;7.10;99.90
20416;DHT22;10367;52.202;5.996;2023-12-20T07:27:34;7.10;99.90
20416;DHT22;10367;52.202;5.996;2023-12-20T07:30:04;7.10;99.90
20416;DHT22;10367;52.202;5.996;2023-12-20T07:32:32;7.10;99.90
20416;DHT22;10367;52.202;5.996;2023-12-20T07:35:01;7.10;99.90
20416;DHT22;10367;52.202;5.996;2023-12-20T07:37:31;7.10;99.90
20416;DHT22;10367;52.202;5.996;2023-12-20T07:40:01;7.10;99.90
20416;DHT22;10367;52.202;5.996;2023-12-20T07:42:31;7.10;99.90
20416;DHT22;10367;52.202;5.996;2023-12-20T07:44:59;7.10;99.90
20416;DHT22;10367;52.202;5.996;2023-12-20T07:47:28;7.10;99.90
20416;DHT22;10367;52.202;5.996;2023-12-20T07:50:00;7.10;99.90
20416;DHT22;10367;52.202;5.996;2023-12-20T07:52:30;7.10;99.90
20416;DHT22;10367;52.202;5.996;2023-12-20T07:55:00;7.10;99.90
20416;DHT22;10367;52.202;5.996;2023-12-20T07:57:29;7.20;99.90
20416;DHT22;10367;52.202;5.996;2023-12-20T07:59:58;7.20;99.90
20416;DHT22;10367;52.202;5.996;2023-12-20T08:02:27;7.10;99.90
20416;DHT22;10367;52.202;5.996;2023-12-20T08:04:56;7.10;99.90
20416;DHT22;10367;52.202;5.996;2023-12-20T08:07:25;7.10;99.90
20416;DHT22;10367;52.202;5.996;2023-12-20T08:10:01;7.20;99.90
20416;DHT22;10367;52.202;5.996;2023-12-20T08:12:30;7.30;99.90
20416;DHT22;10367;52.202;5.996;2023-12-20T08:14:58;7.30;99.90
20416;DHT22;10367;52.202;5.996;2023-12-20T08:17:27;7.30;99.90
20416;DHT22;10367;52.202;5.996;2023-12-20T08:19:56;7.30;99.90
20416;DHT22;10367;52.202;5.996;2023-12-20T08:22:25;7.30;99.90
20416;DHT22;10367;52.202;5.996;2023-12-20T08:24:54;7.30;99.90
20416;DHT22;10367;52.202;5.996;2023-12-20T08:27:24;7.30;99.90
20416;DHT22;10367;52.202;5.996;2023-12-20T08:29:56;7.40;99.90
20416;DHT22;10367;52.202;5.996;2023-12-20T08:32:30;7.40;99.90
20416;DHT22;10367;52.202;5.996;2023-12-20T08:34:59;7.40;99.90
20416;DHT22;10367;52.202;5.996;2023-12-20T08:37:28;7.40;99.90
20416;DHT22;10367;52.202;5.996;2023-12-20T08:40:00;7.40;99.90
20416;DHT22;10367;52.202;5.996;2023-12-20T08:42:30;7.40;99.90
20416;DHT22;10367;52.202;5.996;2023-12-20T08:44:59;7.40;99.90
20416;DHT22;10367;52.202;5.996;2023-12-20T08:47:31;7.40;99.90
20416;DHT22;10367;52.202;5.996;2023-12-20T08:49:59;7.40;99.90
20416;DHT22;10367;52.202;5.996;2023-12-20T08:52:29;7.40;99.90
20416;DHT22;10367;52.202;5.996;2023-12-20T08:54:58;7.40;99.90
20416;DHT22;10367;52.202;5.996;2023-12-20T08:57:27;7.40;99.90
20416;DHT22;10367;52.202;5.996;2023-12-20T08:59:57;7.40;99.90
20416;DHT22;10367;52.202;5.996;2023-12-20T09:02:25;7.40;99.90
20416;DHT22;10367;52.202;5.996;2023-12-20T09:04:54;7.40;99.90
20416;DHT22;10367;52.202;5.996;2023-12-20T09:07:26;7.50;99.90
20416;DHT22;10367;52.202;5.996;2023-12-20T09:09:58;7.50;99.90
20416;DHT22;10367;52.202;5.996;2023-12-20T09:12:27;7.50;99.90
20416;DHT22;10367;52.202;5.996;2023-12-20T09:14:57;7.50;99.90
20416;DHT22;10367;52.202;5.996;2023-12-20T09:17:26;7.60;99.90
20416;DHT22;10367;52.202;5.996;2023-12-20T09:19:55;7.60;99.90
20416;DHT22;10367;52.202;5.996;2023-12-20T09:22:25;7.60;99.90
20416;DHT22;10367;52.202;5.996;2023-12-20T09:24:54;7.50;99.90
20416;DHT22;10367;52.202;5.996;2023-12-20T09:27:23;7.50;99.90
20416;DHT22;10367;52.202;5.996;2023-12-20T09:29:51;7.50;99.90
20416;DHT22;10367;52.202;5.996;2023-12-20T09:32:22;7.50;99.90
20416;DHT22;10367;52.202;5.996;2023-12-20T09:34:50;7.40;99.90
20416;DHT22;10367;52.202;5.996;2023-12-20T09:37:19;7.40;99.90
20416;DHT22;10367;52.202;5.996;2023-12-20T09:39:48;7.40;99.90
20416;DHT22;10367;52.202;5.996;2023-12-20T09:42:24;7.40;99.90
20416;DHT22;10367;52.202;5.996;2023-12-20T09:44:53;7.40;99.90
20416;DHT22;10367;52.202;5.996;2023-12-20T09:47:23;7.40;99.90
20416;DHT22;10367;52.202;5.996;2023-12-20T09:49:54;7.50;99.90
20416;DHT22;10367;52.202;5.996;2023-12-20T09:52:24;7.50;99.90
20416;DHT22;10367;52.202;5.996;2023-12-20T09:54:53;7.50;99.90
20416;DHT22;10367;52.202;5.996;2023-12-20T09:57:23;7.50;99.90
20416;DHT22;10367;52.202;5.996;2023-12-20T09:59:52;7.50;99.90
20416;DHT22;10367;52.202;5.996;2023-12-20T10:02:25;7.60;99.90
20416;DHT22;10367;52.202;5.996;2023-12-20T10:04:55;7.60;99.90
20416;DHT22;10367;52.202;5.996;2023-12-20T10:07:24;7.60;99.90
20416;DHT22;10367;52.202;5.996;2023-12-20T10:09:54;7.70;99.90
20416;DHT22;10367;52.202;5.996;2023-12-20T10:12:24;7.70;99.90
20416;DHT22;10367;52.202;5.996;2023-12-20T10:14:52;7.80;99.90
20416;DHT22;10367;52.202;5.996;2023-12-20T10:17:21;7.80;99.90
20416;DHT22;10367;52.202;5.996;2023-12-20T10:19:52;7.80;99.90
20416;DHT22;10367;52.202;5.996;2023-12-20T10:22:21;7.80;99.90
20416;DHT22;10367;52.202;5.996;2023-12-20T10:24:50;7.80;99.90
20416;DHT22;10367;52.202;5.996;2023-12-20T10:27:19;7.80;99.90
20416;DHT22;10367;52.202;5.996;2023-12-20T10:29:48;7.80;99.90
20416;DHT22;10367;52.202;5.996;2023-12-20T10:32:25;7.80;99.90
20416;DHT22;10367;52.202;5.996;2023-12-20T10:34:55;7.80;99.90
20416;DHT22;10367;52.202;5.996;2023-12-20T10:37:25;7.90;99.90
20416;DHT22;10367;52.202;5.996;2023-12-20T10:39:54;7.90;99.90
20416;DHT22;10367;52.202;5.996;2023-12-20T10:42:26;7.90;99.90
20416;DHT22;10367;52.202;5.996;2023-12-20T10:44:58;7.90;99.90
20416;DHT22;10367;52.202;5.996;2023-12-20T10:47:30;7.90;99.90
20416;DHT22;10367;52.202;5.996;2023-12-20T10:50:02;8.00;99.90
20416;DHT22;10367;52.202;5.996;2023-12-20T10:52:34;8.10;99.90
20416;DHT22;10367;52.202;5.996;2023-12-20T10:55:05;8.10;99.90
20416;DHT22;10367;52.202;5.996;2023-12-20T10:57:36;8.20;99.90
20416;DHT22;10367;52.202;5.996;2023-12-20T11:00:08;8.30;99.90
20416;DHT22;10367;52.202;5.996;2023-12-20T11:02:39;8.60;99.90
20416;DHT22;10367;52.202;5.996;2023-12-20T11:05:19;8.70;99.90
20416;DHT22;10367;52.202;5.996;2023-12-20T11:07:57;8.90;99.90
20416;DHT22;10367;52.202;5.996;2023-12-20T11:10:35;8.90;99.90
20416;DHT22;10367;52.202;5.996;2023-12-20T11:13:10;9.00;99.90
20416;DHT22;10367;52.202;5.996;2023-12-20T11:15:42;9.10;99.90
20416;DHT22;10367;52.202;5.996;2023-12-20T11:18:11;9.00;99.90
20416;DHT22;10367;52.202;5.996;2023-12-20T11:20:42;9.00;99.90
20416;DHT22;10367;52.202;5.996;2023-12-20T11:23:13;8.80;99.90
20416;DHT22;10367;52.202;5.996;2023-12-20T11:25:47;8.70;99.90
20416;DHT22;10367;52.202;5.996;2023-12-20T11:28:21;8.60;99.90
20416;DHT22;10367;52.202;5.996;2023-12-20T11:30:51;8.80;99.90
20416;DHT22;10367;52.202;5.996;2023-12-20T11:33:25;8.90;99.90
20416;DHT22;10367;52.202;5.996;2023-12-20T11:35:59;8.90;99.90
20416;DHT22;10367;52.202;5.996;2023-12-20T11:38:36;9.00;99.90
20416;DHT22;10367;52.202;5.996;2023-12-20T11:41:06;9.10;99.90
20416;DHT22;10367;52.202;5.996;2023-12-20T11:43:38;9.20;99.90
20416;DHT22;10367;52.202;5.996;2023-12-20T11:46:08;9.40;99.90
20416;DHT22;10367;52.202;5.996;2023-12-20T11:48:38;9.40;99.90
20416;DHT22;10367;52.202;5.996;2023-12-20T11:51:12;9.50;99.90
20416;DHT22;10367;52.202;5.996;2023-12-20T11:53:41;9.90;99.90
20416;DHT22;10367;52.202;5.996;2023-12-20T11:56:10;9.80;99.90
20416;DHT22;10367;52.202;5.996;2023-12-20T11:58:40;9.90;99.90
20416;DHT22;10367;52.202;5.996;2023-12-20T12:01:08;9.90;99.90
20416;DHT22;10367;52.202;5.996;2023-12-20T12:03:38;9.90;99.90
20416;DHT22;10367;52.202;5.996;2023-12-20T12:06:06;9.90;99.90
20416;DHT22;10367;52.202;5.996;2023-12-20T12:08:37;9.80;99.90
20416;DHT22;10367;52.202;5.996;2023-12-20T12:11:06;9.80;99.90
20416;DHT22;10367;52.202;5.996;2023-12-20T12:13:34;9.80;99.90
20416;DHT22;10367;52.202;5.996;2023-12-20T12:16:04;9.70;99.90
20416;DHT22;10367;52.202;5.996;2023-12-20T12:18:33;9.70;99.90
20416;DHT22;10367;52.202;5.996;2023-12-20T12:21:03;9.60;99.90
20416;DHT22;10367;52.202;5.996;2023-12-20T12:23:43;9.60;99.90
20416;DHT22;10367;52.202;5.996;2023-12-20T12:26:11;9.60;99.90
20416;DHT22;10367;52.202;5.996;2023-12-20T12:28:40;9.60;99.90
20416;DHT22;10367;52.202;5.996;2023-12-20T12:31:13;9.50;99.90
20416;DHT22;10367;52.202;5.996;2023-12-20T12:33:43;9.50;99.90
20416;DHT22;10367;52.202;5.996;2023-12-20T12:36:12;9.50;99.90
20416;DHT22;10367;52.202;5.996;2023-12-20T12:38:44;9.50;99.90
20416;DHT22;10367;52.202;5.996;2023-12-20T12:41:13;9.50;99.90
20416;DHT22;10367;52.202;5.996;2023-12-20T12:43:42;9.50;99.90
20416;DHT22;10367;52.202;5.996;2023-12-20T12:46:11;9.50;99.90
20416;DHT22;10367;52.202;5.996;2023-12-20T12:48:40;9.50;99.90
20416;DHT22;10367;52.202;5.996;2023-12-20T12:51:13;9.40;99.90
20416;DHT22;10367;52.202;5.996;2023-12-20T12:53:41;9.40;99.90
20416;DHT22;10367;52.202;5.996;2023-12-20T12:56:13;9.40;99.90
20416;DHT22;10367;52.202;5.996;2023-12-20T12:58:42;9.40;99.90
20416;DHT22;10367;52.202;5.996;2023-12-20T13:01:10;9.40;99.90
20416;DHT22;10367;52.202;5.996;2023-12-20T13:03:39;9.30;99.90
20416;DHT22;10367;52.202;5.996;2023-12-20T13:06:09;9.30;99.90
20416;DHT22;10367;52.202;5.996;2023-12-20T13:08:38;9.30;99.90
20416;DHT22;10367;52.202;5.996;2023-12-20T13:11:07;9.20;99.90
20416;DHT22;10367;52.202;5.996;2023-12-20T13:13:37;9.30;99.90
20416;DHT22;10367;52.202;5.996;2023-12-20T13:16:06;9.30;99.90
20416;DHT22;10367;52.202;5.996;2023-12-20T13:18:35;9.30;99.90
20416;DHT22;10367;52.202;5.996;2023-12-20T13:21:04;9.30;99.90
20416;DHT22;10367;52.202;5.996;2023-12-20T13:23:33;9.30;99.90
20416;DHT22;10367;52.202;5.996;2023-12-20T13:26:07;9.20;99.90
20416;DHT22;10367;52.202;5.996;2023-12-20T13:28:37;9.20;99.90
20416;DHT22;10367;52.202;5.996;2023-12-20T13:31:06;9.10;99.90
20416;DHT22;10367;52.202;5.996;2023-12-20T13:33:35;9.20;99.90
20416;DHT22;10367;52.202;5.996;2023-12-20T13:36:04;9.10;99.90
20416;DHT22;10367;52.202;5.996;2023-12-20T13:38:34;9.10;99.90
20416;DHT22;10367;52.202;5.996;2023-12-20T13:41:03;9.10;99.90
20416;DHT22;10367;52.202;5.996;2023-12-20T13:43:32;9.10;99.90
20416;DHT22;10367;52.202;5.996;2023-12-20T13:46:03;9.10;99.90
20416;DHT22;10367;52.202;5.996;2023-12-20T13:48:32;9.10;99.90
20416;DHT22;10367;52.202;5.996;2023-12-20T13:51:00;9.10;99.90
20416;DHT22;10367;52.202;5.996;2023-12-20T13:53:30;9.10;99.90
20416;DHT22;10367;52.202;5.996;2023-12-20T13:55:58;9.10;99.90
20416;DHT22;10367;52.202;5.996;2023-12-20T13:58:28;9.10;99.90
20416;DHT22;10367;52.202;5.996;2023-12-20T14:00:57;9.10;99.90
20416;DHT22;10367;52.202;5.996;2023-12-20T14:03:27;9.10;99.90
20416;DHT22;10367;52.202;5.996;2023-12-20T14:05:56;9.00;99.90
20416;DHT22;10367;52.202;5.996;2023-12-20T14:08:25;9.00;99.90
20416;DHT22;10367;52.202;5.996;2023-12-20T14:10:54;9.00;99.90
20416;DHT22;10367;52.202;5.996;2023-12-20T14:13:22;9.00;99.90
20416;DHT22;10367;52.202;5.996;2023-12-20T14:15:51;9.00;99.90
20416;DHT22;10367;52.202;5.996;2023-12-20T14:18:21;9.00;99.90
20416;DHT22;10367;52.202;5.996;2023-12-20T14:20:51;9.00;99.90
20416;DHT22;10367;52.202;5.996;2023-12-20T14:23:21;9.00;99.90
20416;DHT22;10367;52.202;5.996;2023-12-20T14:25:50;9.00;99.90
20416;DHT22;10367;52.202;5.996;2023-12-20T14:28:19;8.90;99.90
20416;DHT22;10367;52.202;5.996;2023-12-20T14:30:48;8.90;99.90
20416;DHT22;10367;52.202;5.996;2023-12-20T14:33:17;8.90;99.90
20416;DHT22;10367;52.202;5.996;2023-12-20T14:35:50;8.90;99.90
20416;DHT22;10367;52.202;5.996;2023-12-20T14:38:19;8.90;99.90
20416;DHT22;10367;52.202;5.996;2023-12-20T14:40:48;8.90;99.90
20416;DHT22;10367;52.202;5.996;2023-12-20T14:43:18;8.90;99.90
20416;DHT22;10367;52.202;5.996;2023-12-20T14:45:47;8.90;99.90
20416;DHT22;10367;52.202;5.996;2023-12-20T14:48:15;8.90;99.90
20416;DHT22;10367;52.202;5.996;2023-12-20T14:50:45;8.90;99.90
20416;DHT22;10367;52.202;5.996;2023-12-20T14:53:17;8.80;99.90
20416;DHT22;10367;52.202;5.996;2023-12-20T14:55:49;8.80;99.90
20416;DHT22;10367;52.202;5.996;2023-12-20T14:58:18;8.80;99.90
20416;DHT22;10367;52.202;5.996;2023-12-20T15:00:47;8.80;99.90
20416;DHT22;10367;52.202;5.996;2023-12-20T15:03:16;8.80;99.90
20416;DHT22;10367;52.202;5.996;2023-12-20T15:05:46;8.80;99.90
20416;DHT22;10367;52.202;5.996;2023-12-20T15:08:16;8.80;99.90
20416;DHT22;10367;52.202;5.996;2023-12-20T15:10:45;8.80;99.90
20416;DHT22;10367;52.202;5.996;2023-12-20T15:13:14;8.70;99.90
20416;DHT22;10367;52.202;5.996;2023-12-20T15:15:43;8.80;99.90
20416;DHT22;10367;52.202;5.996;2023-12-20T15:18:13;8.80;99.90
20416;DHT22;10367;52.202;5.996;2023-12-20T15:20:42;8.70;99.90
20416;DHT22;10367;52.202;5.996;2023-12-20T15:23:12;8.70;99.90
20416;DHT22;10367;52.202;5.996;2023-12-20T15:25:43;8.80;99.90
20416;DHT22;10367;52.202;5.996;2023-12-20T15:28:11;8.70;99.90
20416;DHT22;10367;52.202;5.996;2023-12-20T15:30:40;8.70;99.90
20416;DHT22;10367;52.202;5.996;2023-12-20T15:33:09;8.70;99.90
20416;DHT22;10367;52.202;5.996;2023-12-20T15:35:38;8.70;99.90
20416;DHT22;10367;52.202;5.996;2023-12-20T15:38:06;8.70;99.90
20416;DHT22;10367;52.202;5.996;2023-12-20T15:40:35;8.60;99.90
20416;DHT22;10367;52.202;5.996;2023-12-20T15:43:06;8.60;99.90
20416;DHT22;10367;52.202;5.996;2023-12-20T15:45:34;8.60;99.90
20416;DHT22;10367;52.202;5.996;2023-12-20T15:48:03;8.60;99.90
20416;DHT22;10367;52.202;5.996;2023-12-20T15:50:32;8.60;99.90
20416;DHT22;10367;52.202;5.996;2023-12-20T15:53:01;8.60;99.90
20416;DHT22;10367;52.202;5.996;2023-12-20T15:55:31;8.60;99.90
20416;DHT22;10367;52.202;5.996;2023-12-20T15:57:59;8.60;99.90
20416;DHT22;10367;52.202;5.996;2023-12-20T16:00:31;8.60;99.90